sensor_id;sensor_type;location;lat;lon;timestamp;pressure;altitude;pressure_sealevel;temperature;humidity
57376;BME280;44805;45.048;5.062;2022-10-17T00:01:59;100204.38;;;16.78;100.00
57376;BME280;44805;45.048;5.062;2022-10-17T00:04:25;100239.69;;;16.95;100.00
57376;BME280;44805;45.048;5.062;2022-10-17T00:06:50;100397.50;;;17.88;100.00
57376;BME280;44805;45.048;5.062;2022-10-17T00:09:16;100337.06;;;17.50;100.00
57376;BME280;44805;45.048;5.062;2022-10-17T00:11:41;100345.66;;;17.52;100.00
57376;BME280;44805;45.048;5.062;2022-10-17T00:14:07;100227.13;;;16.81;100.00
57376;BME280;44805;45.048;5.062;2022-10-17T00:16:34;100347.38;;;17.45;100.00
57376;BME280;44805;45.048;5.062;2022-10-17T00:19:02;100347.38;;;17.45;100.00
57376;BME280;44805;45.048;5.062;2022-10-17T00:21:28;100276.69;;;17.05;100.00
57376;BME280;44805;45.048;5.062;2022-10-17T00:23:54;100253.72;;;16.81;100.00
57376;BME280;44805;45.048;5.062;2022-10-17T00:26:20;100303.88;;;17.15;100.00
57376;BME280;44805;45.048;5.062;2022-10-17T00:28:46;100336.13;;;17.35;100.00
57376;BME280;44805;45.048;5.062;2022-10-17T00:31:16;100401.22;;;17.78;100.00
57376;BME280;44805;45.048;5.062;2022-10-17T00:33:42;100404.56;;;17.81;100.00
57376;BME280;44805;45.048;5.062;2022-10-17T00:36:17;100249.63;;;16.70;100.00
57376;BME280;44805;45.048;5.062;2022-10-17T00:38:44;100361.34;;;17.47;100.00
57376;BME280;44805;45.048;5.062;2022-10-17T00:41:12;100344.13;;;17.35;100.00
57376;BME280;44805;45.048;5.062;2022-10-17T00:44:01;100408.06;;;17.73;100.00
57376;BME280;44805;45.048;5.062;2022-10-17T00:46:29;100305.06;;;17.12;100.00
57376;BME280;44805;45.048;5.062;2022-10-17T00:48:56;100312.75;;;17.07;100.00
57376;BME280;44805;45.048;5.062;2022-10-17T00:51:50;100387.94;;;17.55;100.00
57376;BME280;44805;45.048;5.062;2022-10-17T00:54:18;100361.56;;;17.38;100.00
57376;BME280;44805;45.048;5.062;2022-10-17T00:56:46;100323.03;;;17.10;100.00
57376;BME280;44805;45.048;5.062;2022-10-17T00:59:12;100415.44;;;17.71;100.00
57376;BME280;44805;45.048;5.062;2022-10-17T01:01:41;100387.31;;;17.45;100.00
57376;BME280;44805;45.048;5.062;2022-10-17T01:04:10;100407.38;;;17.56;100.00
57376;BME280;44805;45.048;5.062;2022-10-17T01:06:35;100285.78;;;16.87;100.00
57376;BME280;44805;45.048;5.062;2022-10-17T01:09:01;100295.09;;;16.83;100.00
57376;BME280;44805;45.048;5.062;2022-10-17T01:14:15;100366.19;;;17.21;100.00
57376;BME280;44805;45.048;5.062;2022-10-17T01:17:07;100419.81;;;17.64;100.00
57376;BME280;44805;45.048;5.062;2022-10-17T01:23:09;100425.84;;;17.57;100.00
57376;BME280;44805;45.048;5.062;2022-10-17T01:26:08;100303.56;;;16.87;100.00
57376;BME280;44805;45.048;5.062;2022-10-17T01:31:21;100399.41;;;17.33;100.00
57376;BME280;44805;45.048;5.062;2022-10-17T01:33:58;100425.25;;;17.47;100.00
57376;BME280;44805;45.048;5.062;2022-10-17T01:42:02;100406.06;;;17.29;100.00
57376;BME280;44805;45.048;5.062;2022-10-17T01:44:56;100426.63;;;17.35;100.00
57376;BME280;44805;45.048;5.062;2022-10-17T01:47:26;100413.34;;;17.35;100.00
57376;BME280;44805;45.048;5.062;2022-10-17T01:49:55;100421.97;;;17.37;100.00
57376;BME280;44805;45.048;5.062;2022-10-17T01:52:26;100348.53;;;16.97;100.00
57376;BME280;44805;45.048;5.062;2022-10-17T01:54:59;100421.31;;;17.35;100.00
57376;BME280;44805;45.048;5.062;2022-10-17T01:57:33;100275.91;;;16.34;100.00
57376;BME280;44805;45.048;5.062;2022-10-17T02:00:02;100364.38;;;16.90;100.00
57376;BME280;44805;45.048;5.062;2022-10-17T02:02:28;100314.50;;;16.53;100.00
57376;BME280;44805;45.048;5.062;2022-10-17T02:04:55;100427.72;;;17.26;100.00
57376;BME280;44805;45.048;5.062;2022-10-17T02:07:21;100438.94;;;17.13;100.00
57376;BME280;44805;45.048;5.062;2022-10-17T02:09:47;100325.28;;;16.51;100.00
57376;BME280;44805;45.048;5.062;2022-10-17T02:15:19;100434.72;;;17.19;100.00
57376;BME280;44805;45.048;5.062;2022-10-17T02:21:00;100422.47;;;17.09;100.00
57376;BME280;44805;45.048;5.062;2022-10-17T02:29:33;100348.28;;;16.83;100.00
57376;BME280;44805;45.048;5.062;2022-10-17T02:31:57;100411.97;;;17.16;100.00
57376;BME280;44805;45.048;5.062;2022-10-17T02:34:28;100418.09;;;17.17;100.00
57376;BME280;44805;45.048;5.062;2022-10-17T02:36:57;100342.88;;;16.60;100.00
57376;BME280;44805;45.048;5.062;2022-10-17T02:39:25;100318.28;;;16.58;100.00
57376;BME280;44805;45.048;5.062;2022-10-17T02:41:53;100266.28;;;16.24;100.00
57376;BME280;44805;45.048;5.062;2022-10-17T02:44:21;100349.16;;;16.67;100.00
57376;BME280;44805;45.048;5.062;2022-10-17T02:46:52;100414.84;;;17.06;100.00
57376;BME280;44805;45.048;5.062;2022-10-17T02:49:29;100256.06;;;16.13;100.00
57376;BME280;44805;45.048;5.062;2022-10-17T02:55:18;100309.75;;;16.40;100.00
57376;BME280;44805;45.048;5.062;2022-10-17T03:00:16;100295.16;;;16.27;100.00
57376;BME280;44805;45.048;5.062;2022-10-17T03:02:47;100246.78;;;16.01;100.00
57376;BME280;44805;45.048;5.062;2022-10-17T03:05:17;100353.66;;;16.67;100.00
57376;BME280;44805;45.048;5.062;2022-10-17T03:07:43;100387.38;;;16.75;100.00
57376;BME280;44805;45.048;5.062;2022-10-17T03:10:09;100357.03;;;16.53;100.00
57376;BME280;44805;45.048;5.062;2022-10-17T03:12:34;100407.41;;;16.93;100.00
57376;BME280;44805;45.048;5.062;2022-10-17T03:15:00;100422.19;;;16.96;100.00
57376;BME280;44805;45.048;5.062;2022-10-17T03:17:25;100262.53;;;16.02;100.00
57376;BME280;44805;45.048;5.062;2022-10-17T03:19:51;100353.03;;;16.57;100.00
57376;BME280;44805;45.048;5.062;2022-10-17T03:22:16;100400.81;;;16.89;100.00
57376;BME280;44805;45.048;5.062;2022-10-17T03:24:41;100406.63;;;16.85;100.00
57376;BME280;44805;45.048;5.062;2022-10-17T03:27:07;100382.41;;;16.71;100.00
57376;BME280;44805;45.048;5.062;2022-10-17T03:29:32;100384.25;;;16.63;100.00
57376;BME280;44805;45.048;5.062;2022-10-17T03:31:58;100246.31;;;15.89;100.00
57376;BME280;44805;45.048;5.062;2022-10-17T03:34:23;100345.75;;;16.50;100.00
57376;BME280;44805;45.048;5.062;2022-10-17T03:36:49;100301.19;;;16.21;100.00
57376;BME280;44805;45.048;5.062;2022-10-17T03:39:14;100360.81;;;16.58;100.00
57376;BME280;44805;45.048;5.062;2022-10-17T03:41:40;100408.59;;;16.91;100.00
57376;BME280;44805;45.048;5.062;2022-10-17T03:44:05;100367.94;;;16.66;99.94
57376;BME280;44805;45.048;5.062;2022-10-17T03:46:31;100306.84;;;16.18;100.00
57376;BME280;44805;45.048;5.062;2022-10-17T03:48:56;100295.91;;;16.05;99.74
57376;BME280;44805;45.048;5.062;2022-10-17T03:51:21;100340.78;;;16.47;99.36
57376;BME280;44805;45.048;5.062;2022-10-17T03:53:47;100366.97;;;16.59;99.25
57376;BME280;44805;45.048;5.062;2022-10-17T03:56:21;100423.56;;;16.92;98.86
57376;BME280;44805;45.048;5.062;2022-10-17T03:58:47;100406.13;;;16.81;99.23
57376;BME280;44805;45.048;5.062;2022-10-17T04:01:14;100362.53;;;16.43;98.96
57376;BME280;44805;45.048;5.062;2022-10-17T04:03:41;100433.53;;;16.90;99.31
57376;BME280;44805;45.048;5.062;2022-10-17T04:06:07;100314.16;;;16.16;99.18
57376;BME280;44805;45.048;5.062;2022-10-17T04:08:33;100410.94;;;16.86;99.00
57376;BME280;44805;45.048;5.062;2022-10-17T04:11:04;100407.63;;;16.84;98.61
57376;BME280;44805;45.048;5.062;2022-10-17T04:13:30;100422.59;;;16.77;99.55
57376;BME280;44805;45.048;5.062;2022-10-17T04:16:01;100428.06;;;16.83;99.77
57376;BME280;44805;45.048;5.062;2022-10-17T04:18:27;100287.31;;;15.95;99.17
57376;BME280;44805;45.048;5.062;2022-10-17T04:20:54;100344.00;;;16.26;99.33
57376;BME280;44805;45.048;5.062;2022-10-17T04:23:19;100339.72;;;16.17;99.54
57376;BME280;44805;45.048;5.062;2022-10-17T04:25:45;100380.66;;;16.47;98.71
57376;BME280;44805;45.048;5.062;2022-10-17T04:28:10;100278.38;;;15.88;99.21
57376;BME280;44805;45.048;5.062;2022-10-17T04:30:36;100325.94;;;16.14;99.07
57376;BME280;44805;45.048;5.062;2022-10-17T04:33:02;100448.88;;;16.80;99.14
57376;BME280;44805;45.048;5.062;2022-10-17T04:35:27;100302.09;;;15.89;99.11
57376;BME280;44805;45.048;5.062;2022-10-17T04:37:53;100371.06;;;16.30;98.77
57376;BME280;44805;45.048;5.062;2022-10-17T04:40:19;100331.78;;;16.01;98.73
57376;BME280;44805;45.048;5.062;2022-10-17T04:42:45;100453.66;;;16.76;99.14
57376;BME280;44805;45.048;5.062;2022-10-17T04:45:10;100458.69;;;16.63;100.00
57376;BME280;44805;45.048;5.062;2022-10-17T04:47:36;100455.88;;;16.64;99.79
57376;BME280;44805;45.048;5.062;2022-10-17T04:50:04;100409.78;;;16.16;100.00
57376;BME280;44805;45.048;5.062;2022-10-17T04:52:42;100366.28;;;16.17;99.10
57376;BME280;44805;45.048;5.062;2022-10-17T04:55:08;100293.66;;;15.69;98.03
57376;BME280;44805;45.048;5.062;2022-10-17T05:00:55;100354.19;;;15.98;97.90
57376;BME280;44805;45.048;5.062;2022-10-17T05:14:02;100370.97;;;15.91;98.41
57376;BME280;44805;45.048;5.062;2022-10-17T05:26:57;100349.72;;;15.74;96.82
57376;BME280;44805;45.048;5.062;2022-10-17T05:32:16;100490.91;;;16.68;97.29
57376;BME280;44805;45.048;5.062;2022-10-17T05:34:56;100492.59;;;16.69;95.85
57376;BME280;44805;45.048;5.062;2022-10-17T05:37:53;100328.81;;;15.79;94.84
57376;BME280;44805;45.048;5.062;2022-10-17T07:32:32;100630.97;;;17.33;85.95
57376;BME280;44805;45.048;5.062;2022-10-17T07:35:29;100475.00;;;16.43;85.17
57376;BME280;44805;45.048;5.062;2022-10-17T07:41:10;100452.94;;;16.35;84.65
57376;BME280;44805;45.048;5.062;2022-10-17T07:43:38;100466.88;;;16.45;84.52
57376;BME280;44805;45.048;5.062;2022-10-17T13:17:36;100460.09;;;22.45;54.38
57376;BME280;44805;45.048;5.062;2022-10-17T13:26:52;100449.69;;;22.82;53.52
57376;BME280;44805;45.048;5.062;2022-10-17T13:29:19;100467.25;;;22.78;53.51
57376;BME280;44805;45.048;5.062;2022-10-17T13:32:08;100452.63;;;22.67;53.58
57376;BME280;44805;45.048;5.062;2022-10-17T13:34:37;100597.00;;;23.50;53.98
57376;BME280;44805;45.048;5.062;2022-10-17T13:37:12;100551.63;;;23.29;53.97
57376;BME280;44805;45.048;5.062;2022-10-17T13:43:24;100460.44;;;22.75;54.06
57376;BME280;44805;45.048;5.062;2022-10-17T13:45:59;100425.41;;;22.57;54.20
57376;BME280;44805;45.048;5.062;2022-10-17T13:48:49;100567.94;;;23.34;54.42
57376;BME280;44805;45.048;5.062;2022-10-17T13:51:46;100516.13;;;23.13;53.76
57376;BME280;44805;45.048;5.062;2022-10-17T13:54:54;100493.84;;;22.93;54.58
57376;BME280;44805;45.048;5.062;2022-10-17T13:57:33;100515.72;;;22.96;54.57
57376;BME280;44805;45.048;5.062;2022-10-17T14:00:42;100506.66;;;22.84;53.97
57376;BME280;44805;45.048;5.062;2022-10-17T14:03:51;100470.84;;;22.52;54.74
57376;BME280;44805;45.048;5.062;2022-10-17T14:06:48;100448.97;;;22.28;54.71
57376;BME280;44805;45.048;5.062;2022-10-17T14:12:41;100448.53;;;22.18;55.22
57376;BME280;44805;45.048;5.062;2022-10-17T14:15:12;100465.28;;;22.20;55.62
57376;BME280;44805;45.048;5.062;2022-10-17T14:17:44;100460.06;;;22.05;55.85
57376;BME280;44805;45.048;5.062;2022-10-17T14:20:19;100475.38;;;22.11;55.71
57376;BME280;44805;45.048;5.062;2022-10-17T14:22:49;100549.25;;;22.54;55.68
57376;BME280;44805;45.048;5.062;2022-10-17T14:26:02;100612.84;;;22.87;56.58
57376;BME280;44805;45.048;5.062;2022-10-17T14:34:57;100535.38;;;22.04;57.44
57376;BME280;44805;45.048;5.062;2022-10-17T14:37:45;100498.84;;;21.89;56.73
57376;BME280;44805;45.048;5.062;2022-10-17T14:40:47;100621.09;;;22.59;57.42
57376;BME280;44805;45.048;5.062;2022-10-17T14:43:28;100475.50;;;21.70;56.88
57376;BME280;44805;45.048;5.062;2022-10-17T14:46:35;100623.78;;;22.65;57.72
57376;BME280;44805;45.048;5.062;2022-10-17T14:56:51;100636.59;;;22.63;57.43
57376;BME280;44805;45.048;5.062;2022-10-17T14:59:27;100640.91;;;22.64;56.31
57376;BME280;44805;45.048;5.062;2022-10-17T15:02:07;100495.13;;;21.84;56.51
57376;BME280;44805;45.048;5.062;2022-10-17T15:04:40;100495.53;;;21.87;56.72
57376;BME280;44805;45.048;5.062;2022-10-17T15:07:31;100632.25;;;22.75;56.94
57376;BME280;44805;45.048;5.062;2022-10-17T15:25:38;100536.22;;;22.04;56.24
57376;BME280;44805;45.048;5.062;2022-10-17T15:28:03;100517.00;;;21.87;55.92
57376;BME280;44805;45.048;5.062;2022-10-17T15:30:34;100659.31;;;22.74;56.16
57376;BME280;44805;45.048;5.062;2022-10-17T15:33:00;100590.13;;;22.29;55.74
57376;BME280;44805;45.048;5.062;2022-10-17T15:35:27;100528.16;;;21.91;55.96
57376;BME280;44805;45.048;5.062;2022-10-17T15:37:53;100487.28;;;21.69;55.86
57376;BME280;44805;45.048;5.062;2022-10-17T15:40:24;100528.13;;;21.84;56.58
57376;BME280;44805;45.048;5.062;2022-10-17T15:43:02;100525.63;;;21.76;56.14
57376;BME280;44805;45.048;5.062;2022-10-17T15:48:30;100593.38;;;22.11;56.50
57376;BME280;44805;45.048;5.062;2022-10-17T15:51:02;100561.13;;;21.85;57.98
57376;BME280;44805;45.048;5.062;2022-10-17T15:53:31;100536.34;;;21.63;57.05
57376;BME280;44805;45.048;5.062;2022-10-17T15:55:57;100581.75;;;21.84;56.98
57376;BME280;44805;45.048;5.062;2022-10-17T15:58:23;100596.81;;;21.85;57.61
57376;BME280;44805;45.048;5.062;2022-10-17T16:01:33;100581.78;;;21.91;57.07
57376;BME280;44805;45.048;5.062;2022-10-17T16:55:42;100688.06;;;21.64;60.24
57376;BME280;44805;45.048;5.062;2022-10-17T17:01:37;100703.66;;;21.54;60.90
57376;BME280;44805;45.048;5.062;2022-10-17T17:15:12;100551.59;;;20.36;59.57
57376;BME280;44805;45.048;5.062;2022-10-17T17:28:16;100687.50;;;20.91;61.24
57376;BME280;44805;45.048;5.062;2022-10-17T17:31:16;100541.19;;;19.84;61.88
57376;BME280;44805;45.048;5.062;2022-10-17T20:12:38;100665.84;;;19.17;70.13
57376;BME280;44805;45.048;5.062;2022-10-17T20:15:04;100721.72;;;19.57;70.15
57376;BME280;44805;45.048;5.062;2022-10-17T20:17:41;100635.81;;;18.85;70.85
57376;BME280;44805;45.048;5.062;2022-10-17T22:00:39;100690.09;;;17.60;80.86
57376;BME280;44805;45.048;5.062;2022-10-17T22:30:35;100700.56;;;17.69;81.76
57376;BME280;44805;45.048;5.062;2022-10-17T22:36:11;100802.69;;;18.17;82.19
57376;BME280;44805;45.048;5.062;2022-10-17T22:38:44;100710.94;;;17.56;81.92
57376;BME280;44805;45.048;5.062;2022-10-17T22:55:48;100854.75;;;18.36;83.96
57376;BME280;44805;45.048;5.062;2022-10-17T23:01:56;100725.75;;;17.50;84.15
57376;BME280;44805;45.048;5.062;2022-10-17T23:05:00;100846.69;;;18.05;84.86
57376;BME280;44805;45.048;5.062;2022-10-17T23:07:50;100698.53;;;17.16;85.01
57376;BME280;44805;45.048;5.062;2022-10-17T23:10:38;100841.03;;;18.08;85.21
57376;BME280;44805;45.048;5.062;2022-10-17T23:16:10;100775.00;;;17.46;85.86
57376;BME280;44805;45.048;5.062;2022-10-17T23:18:51;100766.34;;;17.52;84.93
57376;BME280;44805;45.048;5.062;2022-10-17T23:21:39;100771.84;;;17.51;85.79
57376;BME280;44805;45.048;5.062;2022-10-17T23:24:16;100763.69;;;17.52;85.93
57376;BME280;44805;45.048;5.062;2022-10-17T23:30:48;100849.84;;;18.09;86.56
57376;BME280;44805;45.048;5.062;2022-10-17T23:36:59;100857.84;;;18.09;86.12
57376;BME280;44805;45.048;5.062;2022-10-17T23:39:56;100796.97;;;17.81;85.79
57376;BME280;44805;45.048;5.062;2022-10-17T23:42:51;100699.53;;;17.23;86.11
57376;BME280;44805;45.048;5.062;2022-10-17T23:45:39;100758.03;;;17.55;86.96
57376;BME280;44805;45.048;5.062;2022-10-17T23:48:20;100848.34;;;18.14;87.35
57376;BME280;44805;45.048;5.062;2022-10-17T23:50:48;100679.91;;;17.07;87.29
57376;BME280;44805;45.048;5.062;2022-10-17T23:53:44;100689.19;;;17.20;87.09
57376;BME280;44805;45.048;5.062;2022-10-17T23:56:44;100744.72;;;17.55;87.17
57376;BME280;44805;45.048;5.062;2022-10-17T23:59:41;100682.06;;;17.20;86.73
